Time,TemperatureF,DewpointF,PressureIn,WindDirection,WindDirectionDegrees,WindSpeedMPH,WindSpeedGustMPH,Humidity,HourlyPrecipIn,Conditions,Clouds,dailyrainin,SolarRadiationWatts/m^2,SoftwareType,DateUTC
2013-07-25 00:02:00,54.0,53.0,-100.00,ESE,103,1.0,3.0,97,0.00,,,0.01,0.000000,,2013-07-25 04:02:00,
2013-07-25 00:12:00,54.0,53.0,-100.00,ESE,103,1.0,3.0,97,0.00,,,0.01,0.000000,,2013-07-25 04:12:00,
2013-07-25 00:43:00,55.0,55.0,-100.00,ESE,113,2.0,2.0,99,0.00,,,0.00,0.000000,,2013-07-25 04:43:00,
2013-07-25 00:53:00,55.0,55.0,-100.00,ESE,113,2.0,2.0,99,0.00,,,0.00,0.000000,,2013-07-25 04:53:00,
2013-07-25 01:02:00,55.0,55.0,-100.00,ESE,113,2.0,2.0,99,0.00,,,0.00,0.000000,,2013-07-25 05:02:00,
2013-07-25 01:12:00,55.0,55.0,-100.00,ESE,113,2.0,2.0,99,0.00,,,0.00,0.000000,,2013-07-25 05:12:00,
2013-07-25 01:43:00,53.0,53.0,-100.00,ESE,110,1.0,2.0,99,0.00,,,0.00,0.000000,,2013-07-25 05:43:00,
2013-07-25 01:52:00,53.0,53.0,-100.00,ESE,110,1.0,2.0,99,0.00,,,0.00,0.000000,,2013-07-25 05:52:00,
2013-07-25 02:02:00,53.0,53.0,-100.00,ESE,110,1.0,2.0,99,0.00,,,0.00,0.000000,,2013-07-25 06:02:00,
2013-07-25 02:12:00,53.0,53.0,-100.00,ESE,110,1.0,2.0,99,0.00,,,0.00,0.000000,,2013-07-25 06:12:00,
2013-07-25 02:42:00,53.0,53.0,-100.00,WSW,251,1.0,3.0,99,0.00,,,0.00,0.000000,,2013-07-25 06:42:00,
2013-07-25 02:52:00,53.0,53.0,-100.00,WSW,251,1.0,3.0,99,0.00,,,0.00,0.000000,,2013-07-25 06:52:00,
2013-07-25 03:02:00,53.0,53.0,-100.00,WSW,251,1.0,3.0,99,0.00,,,0.00,0.000000,,2013-07-25 07:02:00,
2013-07-25 03:12:00,53.0,53.0,-100.00,WSW,251,1.0,3.0,99,0.00,,,0.00,0.000000,,2013-07-25 07:12:00,
2013-07-25 03:43:00,54.0,54.0,-100.00,SE,129,2.0,3.0,100,0.00,,,0.00,0.000000,,2013-07-25 07:43:00,
2013-07-25 03:53:00,54.0,54.0,-100.00,SE,129,2.0,3.0,100,0.00,,,0.00,0.000000,,2013-07-25 07:53:00,
2013-07-25 04:02:00,54.0,54.0,-100.00,SE,129,2.0,3.0,100,0.00,,,0.00,0.000000,,2013-07-25 08:02:00,
2013-07-25 04:12:00,54.0,54.0,-100.00,SE,129,2.0,3.0,100,0.00,,,0.00,0.000000,,2013-07-25 08:12:00,
2013-07-25 04:44:00,54.0,54.0,-100.00,ENE,67,2.0,5.0,100,0.00,,,0.00,0.000000,,2013-07-25 08:44:00,
2013-07-25 04:52:00,54.0,54.0,-100.00,ENE,67,2.0,5.0,100,0.00,,,0.00,0.000000,,2013-07-25 08:52:00,
2013-07-25 05:02:00,54.0,54.0,-100.00,ENE,67,2.0,5.0,100,0.00,,,0.00,0.000000,,2013-07-25 09:02:00,
2013-07-25 05:12:00,54.0,54.0,-100.00,ENE,67,2.0,5.0,100,0.00,,,0.00,0.000000,,2013-07-25 09:12:00,
2013-07-25 05:43:00,53.0,53.0,-100.00,East,91,3.0,5.0,100,0.00,,,0.00,0.000000,,2013-07-25 09:43:00,
2013-07-25 05:53:00,53.0,53.0,-100.00,East,91,3.0,5.0,100,0.00,,,0.00,0.000000,,2013-07-25 09:53:00,
2013-07-25 06:03:00,53.0,53.0,-100.00,East,91,3.0,5.0,100,0.00,,,0.00,0.000000,,2013-07-25 10:03:00,
2013-07-25 06:12:00,53.0,53.0,-100.00,East,91,3.0,5.0,100,0.00,,,0.00,0.000000,,2013-07-25 10:12:00,
2013-07-25 06:53:00,53.0,53.0,-100.00,NE,54,2.0,5.0,100,0.00,,,0.00,0.000000,,2013-07-25 10:53:00,
2013-07-25 07:02:00,53.0,53.0,-100.00,NE,54,2.0,5.0,100,0.00,,,0.00,0.000000,,2013-07-25 11:02:00,
2013-07-25 07:12:00,53.0,53.0,-100.00,NE,54,2.0,5.0,100,0.00,,,0.00,0.000000,,2013-07-25 11:12:00,
2013-07-25 07:43:00,53.0,53.0,-100.00,NNE,30,4.0,7.0,100,0.00,,,0.00,17.000000,,2013-07-25 11:43:00,
2013-07-25 07:52:00,53.0,53.0,-100.00,NNE,30,4.0,7.0,100,0.00,,,0.00,17.000000,,2013-07-25 11:52:00,
2013-07-25 08:03:00,53.0,53.0,-100.00,NNE,30,4.0,7.0,100,0.00,,,0.00,17.000000,,2013-07-25 12:03:00,
2013-07-25 08:12:00,53.0,53.0,-100.00,NNE,30,4.0,7.0,100,0.00,,,0.00,17.000000,,2013-07-25 12:12:00,
2013-07-25 08:45:00,55.0,55.0,-100.00,NE,50,3.0,6.0,99,0.00,,,0.00,112.000000,,2013-07-25 12:45:00,
2013-07-25 08:53:00,55.0,55.0,-100.00,NE,50,3.0,6.0,99,0.00,,,0.00,112.000000,,2013-07-25 12:53:00,
2013-07-25 09:03:00,55.0,55.0,-100.00,NE,50,3.0,6.0,99,0.00,,,0.00,112.000000,,2013-07-25 13:03:00,
2013-07-25 09:12:00,55.0,55.0,-100.00,NE,50,3.0,6.0,99,0.00,,,0.00,112.000000,,2013-07-25 13:12:00,
2013-07-25 09:53:00,61.0,58.0,-100.00,North,5,4.0,5.0,91,0.00,,,0.00,362.000000,,2013-07-25 13:53:00,
2013-07-25 10:02:00,61.0,58.0,-100.00,North,5,4.0,5.0,91,0.00,,,0.00,362.000000,,2013-07-25 14:02:00,
2013-07-25 10:12:00,61.0,58.0,-100.00,North,5,4.0,5.0,91,0.00,,,0.00,362.000000,,2013-07-25 14:12:00,
2013-07-25 10:43:00,66.0,59.0,-100.00,ENE,67,3.0,5.0,78,0.00,,,0.00,437.000000,,2013-07-25 14:43:00,
2013-07-25 10:53:00,66.0,59.0,-100.00,ENE,67,3.0,5.0,78,0.00,,,0.00,437.000000,,2013-07-25 14:53:00,
2013-07-25 11:02:00,66.0,59.0,-100.00,ENE,67,3.0,5.0,78,0.00,,,0.00,437.000000,,2013-07-25 15:02:00,
2013-07-25 11:12:00,66.0,59.0,-100.00,ENE,67,3.0,5.0,78,0.00,,,0.00,437.000000,,2013-07-25 15:12:00,
2013-07-25 11:44:00,70.0,56.0,-100.00,NNE,12,5.0,7.0,62,0.00,,,0.00,710.000000,,2013-07-25 15:44:00,
2013-07-25 11:53:00,70.0,56.0,-100.00,NNE,12,5.0,7.0,62,0.00,,,0.00,710.000000,,2013-07-25 15:53:00,
2013-07-25 12:02:00,70.0,56.0,-100.00,NNE,12,5.0,7.0,62,0.00,,,0.00,710.000000,,2013-07-25 16:02:00,
2013-07-25 12:12:00,70.0,56.0,-100.00,NNE,12,5.0,7.0,62,0.00,,,0.00,710.000000,,2013-07-25 16:12:00,
2013-07-25 12:45:00,72.0,55.0,-100.00,NNE,23,6.0,10.0,55,0.00,,,0.00,911.000000,,2013-07-25 16:45:00,
2013-07-25 12:53:00,72.0,55.0,-100.00,NNE,23,6.0,10.0,55,0.00,,,0.00,911.000000,,2013-07-25 16:53:00,
2013-07-25 13:03:00,72.0,55.0,-100.00,NNE,23,6.0,10.0,55,0.00,,,0.00,911.000000,,2013-07-25 17:03:00,
2013-07-25 13:12:00,72.0,55.0,-100.00,NNE,23,6.0,10.0,55,0.00,,,0.00,911.000000,,2013-07-25 17:12:00,
2013-07-25 13:43:00,73.0,55.0,-100.00,NW,326,5.0,12.0,53,0.00,,,0.00,792.000000,,2013-07-25 17:43:00,
2013-07-25 13:53:00,73.0,55.0,-100.00,NW,326,5.0,12.0,53,0.00,,,0.00,792.000000,,2013-07-25 17:53:00,
2013-07-25 14:02:00,73.0,55.0,-100.00,NW,326,5.0,12.0,53,0.00,,,0.00,792.000000,,2013-07-25 18:02:00,
2013-07-25 14:12:00,73.0,55.0,-100.00,NW,326,5.0,12.0,53,0.00,,,0.00,792.000000,,2013-07-25 18:12:00,
2013-07-25 14:43:00,74.0,54.0,-100.00,North,2,5.0,9.0,49,0.00,,,0.00,827.000000,,2013-07-25 18:43:00,
2013-07-25 14:52:00,74.0,54.0,-100.00,North,2,5.0,9.0,49,0.00,,,0.00,827.000000,,2013-07-25 18:52:00,
2013-07-25 15:03:00,74.0,54.0,-100.00,North,2,5.0,9.0,49,0.00,,,0.00,827.000000,,2013-07-25 19:03:00,
2013-07-25 15:12:00,74.0,54.0,-100.00,North,2,5.0,9.0,49,0.00,,,0.00,827.000000,,2013-07-25 19:12:00,
2013-07-25 15:43:00,73.0,56.0,-100.00,North,3,3.0,11.0,55,0.00,,,0.00,649.000000,,2013-07-25 19:43:00,
2013-07-25 15:53:00,73.0,56.0,-100.00,North,3,3.0,11.0,55,0.00,,,0.00,649.000000,,2013-07-25 19:53:00,
2013-07-25 16:03:00,73.0,56.0,-100.00,North,3,3.0,11.0,55,0.00,,,0.00,649.000000,,2013-07-25 20:03:00,
2013-07-25 16:12:00,73.0,56.0,-100.00,North,3,3.0,11.0,55,0.00,,,0.00,649.000000,,2013-07-25 20:12:00,
2013-07-25 16:43:00,74.0,57.0,-100.00,NNW,345,2.0,7.0,56,0.00,,,0.00,389.000000,,2013-07-25 20:43:00,
2013-07-25 16:54:00,74.0,57.0,-100.00,NNW,345,2.0,7.0,56,0.00,,,0.00,389.000000,,2013-07-25 20:54:00,
2013-07-25 17:03:00,74.0,57.0,-100.00,NNW,345,2.0,7.0,56,0.00,,,0.00,389.000000,,2013-07-25 21:03:00,
2013-07-25 17:12:00,74.0,57.0,-100.00,NNW,345,2.0,7.0,56,0.00,,,0.00,389.000000,,2013-07-25 21:12:00,
2013-07-25 17:44:00,74.0,56.0,-100.00,NW,313,4.0,7.0,54,0.00,,,0.00,314.000000,,2013-07-25 21:44:00,
2013-07-25 17:53:00,74.0,56.0,-100.00,NW,313,4.0,7.0,54,0.00,,,0.00,314.000000,,2013-07-25 21:53:00,
2013-07-25 18:02:00,74.0,56.0,-100.00,NW,313,4.0,7.0,54,0.00,,,0.00,314.000000,,2013-07-25 22:02:00,
2013-07-25 18:12:00,74.0,56.0,-100.00,NW,313,4.0,7.0,54,0.00,,,0.00,314.000000,,2013-07-25 22:12:00,
2013-07-25 18:43:00,74.0,54.0,-100.00,WNW,297,4.0,10.0,49,0.00,,,0.00,371.000000,,2013-07-25 22:43:00,
2013-07-25 18:53:00,74.0,54.0,-100.00,WNW,297,4.0,10.0,49,0.00,,,0.00,371.000000,,2013-07-25 22:53:00,
2013-07-25 19:02:00,74.0,54.0,-100.00,WNW,297,4.0,10.0,49,0.00,,,0.00,371.000000,,2013-07-25 23:02:00,
2013-07-25 19:12:00,74.0,54.0,-100.00,WNW,297,4.0,10.0,49,0.00,,,0.00,371.000000,,2013-07-25 23:12:00,
2013-07-25 19:43:00,72.0,54.0,-100.00,WNW,287,5.0,10.0,53,0.00,,,0.00,285.000000,,2013-07-25 23:43:00,
2013-07-25 19:52:00,72.0,54.0,-100.00,WNW,287,5.0,10.0,53,0.00,,,0.00,285.000000,,2013-07-25 23:52:00,
2013-07-25 20:02:00,72.0,54.0,-100.00,WNW,287,5.0,10.0,53,0.00,,,0.00,285.000000,,2013-07-26 00:02:00,
2013-07-25 20:12:00,72.0,54.0,-100.00,WNW,287,5.0,10.0,53,0.00,,,0.00,285.000000,,2013-07-26 00:12:00,
2013-07-25 20:43:00,69.0,53.0,-100.00,WNW,289,2.0,7.0,57,0.00,,,0.00,106.000000,,2013-07-26 00:43:00,
2013-07-25 20:52:00,69.0,53.0,-100.00,WNW,289,2.0,7.0,57,0.00,,,0.00,106.000000,,2013-07-26 00:52:00,
2013-07-25 21:02:00,69.0,53.0,-100.00,WNW,289,2.0,7.0,57,0.00,,,0.00,106.000000,,2013-07-26 01:02:00,
2013-07-25 21:12:00,69.0,53.0,-100.00,WNW,289,2.0,7.0,57,0.00,,,0.00,106.000000,,2013-07-26 01:12:00,
2013-07-25 21:43:00,62.0,53.0,-100.00,SSW,206,3.0,3.0,73,0.00,,,0.00,4.000000,,2013-07-26 01:43:00,
2013-07-25 21:52:00,62.0,53.0,-100.00,SSW,206,3.0,3.0,73,0.00,,,0.00,4.000000,,2013-07-26 01:52:00,
2013-07-25 22:02:00,62.0,53.0,-100.00,SSW,206,3.0,3.0,73,0.00,,,0.00,4.000000,,2013-07-26 02:02:00,
2013-07-25 22:12:00,62.0,53.0,-100.00,SSW,206,3.0,3.0,73,0.00,,,0.00,4.000000,,2013-07-26 02:12:00,
2013-07-25 23:44:00,56.0,54.0,-100.00,South,175,2.0,4.0,92,-99.99,,,0.00,0.000000,,2013-07-26 03:44:00,
2013-07-25 23:53:00,56.0,54.0,-100.00,South,175,2.0,4.0,92,-99.99,,,0.00,0.000000,,2013-07-26 03:53:00,